Time;durP1;ratioP1;P1;durP2;ratioP2;P2;SDS_P1;SDS_P2;PMS_P1;PMS_P2;Temp;Humidity;BMP_temperature;BMP_pressure;BME280_temperature;BME280_humidity;BME280_pressure;Samples;Min_cycle;Max_cycle;Signal;HPM_P1;HPM_P2
2022/05/03 00:00:36;;;;;;;6.93;4.72;;;;;;;;;;5025595;28;20067;-57
2022/05/03 00:03:14;;;;;;;7.68;4.38;;;;;;;;;;5025017;28;20053;-57
2022/05/03 00:06:02;;;;;;;11.30;4.32;;;;;;;;;;5007259;28;20053;-57
2022/05/03 00:08:35;;;;;;;8.90;3.95;;;;;;;;;;5025944;28;20049;-57
2022/05/03 00:11:08;;;;;;;7.07;3.72;;;;;;;;;;5025682;28;20048;-57
2022/05/03 00:13:41;;;;;;;6.35;3.90;;;;;;;;;;5007664;28;20555;-57
2022/05/03 00:16:07;;;;;;;9.80;4.68;;;;;;;;;;5025300;28;20128;-57
2022/05/03 00:18:34;;;;;;;7.32;3.75;;;;;;;;;;5006393;28;20051;-57
2022/05/03 00:21:00;;;;;;;8.35;4.90;;;;;;;;;;5024846;28;20694;-58
2022/05/03 00:23:26;;;;;;;7.45;4.03;;;;;;;;;;5025394;28;20121;-57
2022/05/03 00:25:53;;;;;;;8.23;4.60;;;;;;;;;;5025006;28;20398;-56
2022/05/03 00:28:20;;;;;;;8.15;4.65;;;;;;;;;;5025511;28;20064;-57
2022/05/03 00:30:48;;;;;;;8.10;5.07;;;;;;;;;;5025032;28;20077;-57
2022/05/03 00:33:15;;;;;;;11.68;5.18;;;;;;;;;;5023421;28;20047;-57
2022/05/03 00:35:43;;;;;;;8.20;5.47;;;;;;;;;;5024834;28;20449;-57
2022/05/03 00:38:09;;;;;;;10.68;5.05;;;;;;;;;;5024753;28;20144;-57
2022/05/03 00:40:44;;;;;;;7.70;4.25;;;;;;;;;;5024397;28;20064;-57
2022/05/03 00:43:10;;;;;;;7.70;4.55;;;;;;;;;;5024266;28;20053;-57
2022/05/03 00:45:36;;;;;;;7.72;4.55;;;;;;;;;;5024429;28;20041;-57
2022/05/03 00:48:07;;;;;;;8.15;4.97;;;;;;;;;;5006276;28;20054;-57
2022/05/03 00:50:36;;;;;;;5.95;4.03;;;;;;;;;;5024617;28;20077;-57
2022/05/03 00:53:07;;;;;;;7.90;4.93;;;;;;;;;;5024618;28;20056;-57
2022/05/03 00:55:40;;;;;;;7.65;4.57;;;;;;;;;;5024463;28;20094;-57
2022/05/03 00:58:19;;;;;;;9.02;4.80;;;;;;;;;;5024305;28;20049;-57
2022/05/03 01:00:52;;;;;;;8.88;4.28;;;;;;;;;;5024292;28;20196;-57
2022/05/03 01:03:26;;;;;;;7.25;4.32;;;;;;;;;;5023802;28;20557;-57
2022/05/03 01:06:12;;;;;;;8.93;4.97;;;;;;;;;;5006348;28;20056;-57
2022/05/03 01:08:50;;;;;;;6.93;4.45;;;;;;;;;;5023444;28;20427;-57
2022/05/03 01:11:31;;;;;;;7.75;4.75;;;;;;;;;;5024299;28;20040;-57
2022/05/03 01:14:03;;;;;;;6.97;4.03;;;;;;;;;;5024767;28;20088;-57
2022/05/03 01:16:34;;;;;;;6.65;4.22;;;;;;;;;;5024388;28;20041;-58
2022/05/03 01:19:05;;;;;;;8.85;4.95;;;;;;;;;;5023339;28;20053;-58
2022/05/03 01:21:45;;;;;;;7.82;4.50;;;;;;;;;;5023422;28;20041;-57
2022/05/03 01:24:32;;;;;;;7.13;4.50;;;;;;;;;;5023894;28;20452;-57
2022/05/03 01:27:07;;;;;;;7.57;4.25;;;;;;;;;;5024301;28;20076;-57
2022/05/03 01:29:34;;;;;;;10.27;5.50;;;;;;;;;;5005692;28;20045;-57
2022/05/03 01:32:02;;;;;;;7.35;5.13;;;;;;;;;;5023456;28;20045;-56
2022/05/03 16:19:28;;;;;;;8.95;2.17;;;;;;;;;;3865155;23;20050;-58
2022/05/03 16:21:54;;;;;;;6.68;2.05;;;;;;;;;;4995641;28;20406;-58
2022/05/03 16:24:21;;;;;;;11.00;2.00;;;;;;;;;;4998567;28;20535;-58
2022/05/03 16:26:49;;;;;;;6.10;1.65;;;;;;;;;;4989626;28;20042;-57
2022/05/03 16:29:16;;;;;;;12.55;2.40;;;;;;;;;;4992077;28;20042;-57
2022/05/03 16:31:42;;;;;;;10.63;2.30;;;;;;;;;;4988939;28;20117;-58
2022/05/03 16:34:08;;;;;;;8.68;2.05;;;;;;;;;;4988114;28;20127;-57
2022/05/03 16:42:08;;;;;;;10.35;1.85;;;;;;;;;;4993128;28;20129;-57
2022/05/03 16:44:35;;;;;;;7.68;1.50;;;;;;;;;;4996064;28;20049;-58
2022/05/03 16:47:02;;;;;;;9.05;1.90;;;;;;;;;;4997703;28;20038;-58
2022/05/03 16:49:28;;;;;;;11.60;2.20;;;;;;;;;;4987215;28;20511;-57
2022/05/03 16:51:54;;;;;;;11.77;2.00;;;;;;;;;;4994060;28;20121;-57
2022/05/03 16:54:22;;;;;;;10.07;2.10;;;;;;;;;;4989927;28;20610;-57
2022/05/03 16:56:48;;;;;;;8.32;2.08;;;;;;;;;;4994971;28;20042;-56
2022/05/03 16:59:16;;;;;;;12.35;2.33;;;;;;;;;;4992715;28;20561;-57
2022/05/03 17:01:44;;;;;;;8.23;1.80;;;;;;;;;;4993926;28;20515;-57
2022/05/03 17:04:11;;;;;;;9.45;2.45;;;;;;;;;;5002077;28;20033;-57
2022/05/03 17:06:37;;;;;;;6.70;1.77;;;;;;;;;;5001026;28;20093;-57
2022/05/03 17:09:04;;;;;;;10.70;2.33;;;;;;;;;;4996017;28;20034;-57
2022/05/03 17:11:30;;;;;;;9.25;2.00;;;;;;;;;;4995144;28;20542;-57
2022/05/03 17:14:04;;;;;;;11.00;2.15;;;;;;;;;;5051853;28;20474;-57
2022/05/03 17:16:30;;;;;;;7.93;2.08;;;;;;;;;;5051400;28;20099;-57
2022/05/03 17:18:57;;;;;;;9.25;1.90;;;;;;;;;;5052219;28;20047;-56
2022/05/03 17:21:24;;;;;;;8.13;2.78;;;;;;;;;;5049391;28;20555;-56
2022/05/03 17:23:50;;;;;;;12.65;2.17;;;;;;;;;;5045022;28;20041;-57
2022/05/03 17:26:20;;;;;;;8.48;2.45;;;;;;;;;;5049123;28;20431;-56
2022/05/03 17:28:46;;;;;;;7.57;2.10;;;;;;;;;;5045493;28;20094;-57
2022/05/03 17:31:13;;;;;;;7.85;1.80;;;;;;;;;;5047142;28;20037;-56
2022/05/03 17:33:39;;;;;;;10.00;2.00;;;;;;;;;;5043918;28;20050;-57
2022/05/03 17:36:06;;;;;;;6.30;2.05;;;;;;;;;;5053276;28;20043;-57
2022/05/03 17:38:32;;;;;;;6.28;2.45;;;;;;;;;;5064894;28;20091;-56
2022/05/03 17:41:00;;;;;;;9.25;2.17;;;;;;;;;;5065165;28;20111;-57
2022/05/03 17:43:27;;;;;;;8.23;1.75;;;;;;;;;;5064701;28;20072;-57
2022/05/03 17:45:55;;;;;;;10.83;2.57;;;;;;;;;;5060455;28;20107;-57
2022/05/03 17:48:21;;;;;;;8.93;2.15;;;;;;;;;;5065045;28;20049;-56
2022/05/03 17:50:48;;;;;;;5.95;2.17;;;;;;;;;;5064632;28;20079;-56
2022/05/03 17:55:59;;;;;;;12.70;2.67;;;;;;;;;;5063677;28;20041;-56
2022/05/03 17:58:25;;;;;;;6.60;2.20;;;;;;;;;;5074309;28;20111;-56
2022/05/03 18:00:51;;;;;;;9.27;3.00;;;;;;;;;;5083303;28;20047;-56
2022/05/03 18:03:18;;;;;;;18.00;2.50;;;;;;;;;;5074106;28;20037;-56
2022/05/03 18:05:44;;;;;;;6.05;2.10;;;;;;;;;;5063337;28;20037;-56
2022/05/03 18:08:10;;;;;;;12.27;2.50;;;;;;;;;;5073403;28;20494;-55
2022/05/03 18:10:37;;;;;;;8.15;2.10;;;;;;;;;;5057849;28;20067;-55
2022/05/03 18:13:03;;;;;;;11.68;3.90;;;;;;;;;;5056651;28;20060;-56
2022/05/03 18:15:29;;;;;;;8.02;2.35;;;;;;;;;;5059499;28;20056;-56
2022/05/03 18:17:57;;;;;;;9.15;2.75;;;;;;;;;;5059957;28;20120;-57
2022/05/03 18:20:24;;;;;;;6.20;2.20;;;;;;;;;;5049333;28;20063;-55
2022/05/03 18:22:52;;;;;;;7.88;2.30;;;;;;;;;;5060303;28;20053;-56
2022/05/03 18:25:19;;;;;;;7.13;2.00;;;;;;;;;;5043847;28;20040;-56
2022/05/03 18:27:45;;;;;;;10.90;2.97;;;;;;;;;;5046426;28;20503;-56
2022/05/03 18:30:12;;;;;;;14.98;2.60;;;;;;;;;;5046976;28;20045;-56
2022/05/03 18:32:39;;;;;;;9.90;2.38;;;;;;;;;;5046129;28;20429;-56
2022/05/03 18:35:05;;;;;;;7.95;2.05;;;;;;;;;;5037534;28;20468;-58
2022/05/03 18:37:31;;;;;;;11.35;2.47;;;;;;;;;;5042197;28;20048;-57
2022/05/03 18:39:58;;;;;;;10.65;2.90;;;;;;;;;;5041419;28;20152;-58
2022/05/03 18:42:24;;;;;;;16.30;2.40;;;;;;;;;;5042158;28;20701;-60
2022/05/03 18:44:50;;;;;;;8.02;2.70;;;;;;;;;;5043754;28;20033;-57
2022/05/03 18:47:17;;;;;;;8.93;2.22;;;;;;;;;;5043441;28;20086;-57
2022/05/03 18:49:43;;;;;;;11.07;2.40;;;;;;;;;;5041728;28;20049;-56
2022/05/03 18:52:09;;;;;;;16.60;2.40;;;;;;;;;;5043605;28;20106;-57
2022/05/03 18:57:20;;;;;;;9.40;1.92;;;;;;;;;;5041661;28;20064;-56
2022/05/03 18:59:46;;;;;;;10.15;2.08;;;;;;;;;;5042163;28;20047;-55
2022/05/03 19:02:13;;;;;;;11.23;2.17;;;;;;;;;;5042741;28;20136;-57
2022/05/03 19:04:39;;;;;;;7.25;1.83;;;;;;;;;;5041325;28;20132;-57
2022/05/03 19:07:06;;;;;;;10.57;2.13;;;;;;;;;;5043135;28;20118;-58
2022/05/03 19:09:34;;;;;;;10.18;2.08;;;;;;;;;;5041669;28;20041;-58
2022/05/03 19:12:00;;;;;;;11.20;2.43;;;;;;;;;;5041676;28;20075;-58
2022/05/03 19:14:26;;;;;;;11.35;1.63;;;;;;;;;;5043145;28;20049;-58
2022/05/03 19:16:54;;;;;;;8.98;2.30;;;;;;;;;;5043236;28;20498;-58
2022/05/03 19:19:23;;;;;;;7.75;2.50;;;;;;;;;;5042314;28;20049;-58
2022/05/03 19:21:50;;;;;;;10.77;2.83;;;;;;;;;;5041425;28;20043;-58
2022/05/03 19:32:31;;;;;;;7.13;2.13;;;;;;;;;;5041180;28;20048;-58
2022/05/03 19:34:58;;;;;;;7.38;2.22;;;;;;;;;;5041218;28;20565;-58
2022/05/03 19:37:24;;;;;;;9.25;2.17;;;;;;;;;;5041893;28;20406;-60
2022/05/03 19:39:50;;;;;;;8.90;1.90;;;;;;;;;;5042299;28;20041;-58
2022/05/03 19:42:16;;;;;;;12.13;2.40;;;;;;;;;;5042556;28;20486;-57
2022/05/03 19:44:43;;;;;;;11.57;2.22;;;;;;;;;;5041303;28;20052;-55
2022/05/03 19:47:09;;;;;;;8.60;2.00;;;;;;;;;;5041560;28;20048;-56
2022/05/03 19:49:35;;;;;;;9.75;2.35;;;;;;;;;;5040620;28;20045;-55
2022/05/03 19:52:01;;;;;;;11.07;2.38;;;;;;;;;;5042211;28;20207;-56
2022/05/03 19:54:28;;;;;;;7.70;2.00;;;;;;;;;;5040884;28;20044;-55
2022/05/03 19:56:54;;;;;;;6.97;1.83;;;;;;;;;;5039021;28;20251;-57
2022/05/03 19:59:20;;;;;;;7.95;2.35;;;;;;;;;;5032071;28;20057;-56
2022/05/03 20:01:47;;;;;;;14.48;2.50;;;;;;;;;;5037792;28;20037;-56
2022/05/03 20:04:13;;;;;;;8.63;2.35;;;;;;;;;;5043732;28;20045;-57
2022/05/03 20:06:40;;;;;;;14.05;1.95;;;;;;;;;;5043869;28;20551;-56
2022/05/03 20:09:08;;;;;;;9.85;2.28;;;;;;;;;;5046306;28;20048;-56
2022/05/03 20:11:35;;;;;;;12.27;1.90;;;;;;;;;;5043691;28;20041;-56
2022/05/03 20:14:01;;;;;;;13.82;2.78;;;;;;;;;;5043997;28;20419;-56
2022/05/03 20:16:27;;;;;;;13.40;2.45;;;;;;;;;;5044448;28;20052;-56
2022/05/03 20:18:53;;;;;;;9.23;2.00;;;;;;;;;;5043227;28;20049;-56
2022/05/03 20:21:19;;;;;;;8.60;1.98;;;;;;;;;;5044072;28;20051;-56
2022/05/03 20:23:46;;;;;;;13.93;2.53;;;;;;;;;;5044124;28;20068;-56
2022/05/03 20:26:13;;;;;;;9.77;2.20;;;;;;;;;;5044136;28;20429;-56
2022/05/03 20:28:39;;;;;;;8.40;1.75;;;;;;;;;;5043878;28;20051;-56
2022/05/03 20:31:05;;;;;;;8.52;2.13;;;;;;;;;;5044177;28;20064;-56
2022/05/03 20:33:32;;;;;;;4.72;1.90;;;;;;;;;;5043099;28;20051;-57
2022/05/03 20:35:58;;;;;;;13.75;2.03;;;;;;;;;;5044071;28;20055;-57
2022/05/03 20:38:24;;;;;;;13.77;2.63;;;;;;;;;;5043822;28;20044;-59
2022/05/03 20:40:50;;;;;;;9.55;2.15;;;;;;;;;;5041842;28;20110;-57
2022/05/03 20:43:16;;;;;;;13.95;2.35;;;;;;;;;;5039553;28;20056;-57
2022/05/03 20:45:43;;;;;;;8.30;2.30;;;;;;;;;;5043291;28;20048;-57
2022/05/03 20:50:54;;;;;;;17.25;2.88;;;;;;;;;;5044673;28;20090;-58
2022/05/03 20:53:20;;;;;;;13.75;2.40;;;;;;;;;;5043866;28;20106;-56
2022/05/03 20:55:46;;;;;;;9.18;2.03;;;;;;;;;;5044297;28;20052;-56
2022/05/03 20:58:12;;;;;;;12.85;2.50;;;;;;;;;;5043415;28;20048;-56
2022/05/03 21:00:39;;;;;;;10.90;2.10;;;;;;;;;;5043401;28;20054;-56
2022/05/03 21:03:05;;;;;;;12.48;2.70;;;;;;;;;;5042567;28;20426;-56
2022/05/03 21:05:31;;;;;;;12.48;2.25;;;;;;;;;;5043354;28;20076;-57
2022/05/03 21:07:57;;;;;;;12.25;2.45;;;;;;;;;;5043534;28;20516;-57
2022/05/03 21:10:23;;;;;;;11.25;2.67;;;;;;;;;;5043931;28;20085;-57
2022/05/03 21:12:50;;;;;;;8.90;2.20;;;;;;;;;;5043695;28;20088;-57
2022/05/03 21:15:16;;;;;;;7.35;1.88;;;;;;;;;;5043744;28;20453;-56
2022/05/03 21:17:42;;;;;;;6.50;1.90;;;;;;;;;;5042976;28;20041;-56
2022/05/03 21:20:09;;;;;;;17.15;2.97;;;;;;;;;;5043970;28;20045;-57
2022/05/03 21:22:35;;;;;;;10.30;1.98;;;;;;;;;;5043109;28;20044;-57
2022/05/03 21:25:01;;;;;;;6.65;2.17;;;;;;;;;;5043943;28;20045;-57
2022/05/03 21:27:27;;;;;;;10.43;2.38;;;;;;;;;;5039514;28;20094;-57
2022/05/03 21:29:54;;;;;;;13.50;2.90;;;;;;;;;;5056102;28;20394;-56
2022/05/03 21:32:20;;;;;;;8.43;2.10;;;;;;;;;;5053434;28;20045;-57
2022/05/03 21:34:48;;;;;;;7.55;2.08;;;;;;;;;;5063593;28;20044;-57
2022/05/03 21:37:15;;;;;;;9.47;2.23;;;;;;;;;;5064864;28;20157;-56
2022/05/03 21:39:41;;;;;;;13.57;2.75;;;;;;;;;;5047733;28;20047;-57
2022/05/03 21:42:07;;;;;;;12.38;2.20;;;;;;;;;;5045901;28;20037;-57
2022/05/03 21:44:34;;;;;;;9.95;2.30;;;;;;;;;;5046170;28;20052;-57
2022/05/03 21:47:01;;;;;;;8.10;2.45;;;;;;;;;;5045583;28;20068;-57
2022/05/03 21:49:27;;;;;;;10.57;2.40;;;;;;;;;;5045665;28;20056;-57
2022/05/03 21:51:53;;;;;;;9.07;1.92;;;;;;;;;;5054931;28;20043;-56
2022/05/03 21:54:21;;;;;;;15.05;2.67;;;;;;;;;;5065383;28;20040;-57
2022/05/03 21:56:48;;;;;;;12.85;2.38;;;;;;;;;;5064278;28;20490;-56
2022/05/03 21:59:14;;;;;;;11.77;2.50;;;;;;;;;;5052018;28;20049;-57
2022/05/03 22:01:40;;;;;;;10.45;2.40;;;;;;;;;;5057338;28;20094;-57
2022/05/03 22:04:06;;;;;;;9.02;2.40;;;;;;;;;;5067621;28;20056;-56
2022/05/03 22:06:33;;;;;;;10.43;2.40;;;;;;;;;;5051277;28;20379;-57
2022/05/03 22:08:59;;;;;;;10.70;2.45;;;;;;;;;;5049592;28;20064;-57
2022/05/03 22:11:25;;;;;;;9.43;2.15;;;;;;;;;;5051266;28;20055;-57
2022/05/03 22:13:51;;;;;;;11.05;2.35;;;;;;;;;;5068161;28;20060;-56
2022/05/03 22:16:17;;;;;;;6.25;1.92;;;;;;;;;;5066802;28;20417;-57
2022/05/03 22:18:44;;;;;;;11.63;2.28;;;;;;;;;;5058696;28;20724;-57
2022/05/03 22:21:10;;;;;;;14.60;2.55;;;;;;;;;;5049526;28;20064;-56
2022/05/03 22:23:36;;;;;;;9.45;2.72;;;;;;;;;;5049272;28;20041;-57
2022/05/03 22:26:02;;;;;;;9.02;2.13;;;;;;;;;;5062092;28;20048;-57
2022/05/03 22:28:28;;;;;;;7.38;2.03;;;;;;;;;;5067970;28;20493;-57
2022/05/03 22:30:54;;;;;;;10.48;2.53;;;;;;;;;;5045572;28;20076;-57
2022/05/03 22:33:21;;;;;;;12.52;2.17;;;;;;;;;;5066313;28;20569;-57
2022/05/03 22:35:47;;;;;;;11.35;2.55;;;;;;;;;;5067680;28;20043;-57
2022/05/03 22:38:13;;;;;;;6.20;1.73;;;;;;;;;;5066681;28;20128;-56
2022/05/03 22:40:40;;;;;;;17.95;2.35;;;;;;;;;;5067941;28;20040;-57
2022/05/03 22:43:06;;;;;;;7.35;1.92;;;;;;;;;;5067369;28;20119;-56
2022/05/03 22:45:32;;;;;;;13.00;2.35;;;;;;;;;;5058109;28;20111;-56
2022/05/03 22:47:58;;;;;;;8.20;2.00;;;;;;;;;;5048582;28;20080;-57
2022/05/03 22:50:25;;;;;;;8.45;1.88;;;;;;;;;;5048726;28;20542;-57
2022/05/03 22:52:51;;;;;;;7.57;2.35;;;;;;;;;;5063208;28;20076;-56
2022/05/03 22:55:17;;;;;;;12.65;2.45;;;;;;;;;;5067446;28;20033;-56
2022/05/03 22:57:43;;;;;;;10.57;2.30;;;;;;;;;;5067057;28;20561;-56
2022/05/03 23:00:09;;;;;;;14.13;2.38;;;;;;;;;;5048879;28;20044;-56
2022/05/03 23:02:36;;;;;;;15.25;2.42;;;;;;;;;;5063364;28;20083;-57
2022/05/03 23:05:02;;;;;;;8.55;2.45;;;;;;;;;;5052690;28;20482;-56
2022/05/03 23:07:28;;;;;;;13.32;2.28;;;;;;;;;;5063426;28;20040;-57
2022/05/03 23:09:54;;;;;;;8.68;2.20;;;;;;;;;;5048211;28;20052;-57
2022/05/03 23:12:21;;;;;;;13.57;2.35;;;;;;;;;;5058984;28;21092;-56
2022/05/03 23:14:47;;;;;;;8.73;2.20;;;;;;;;;;5066679;28;20044;-57
2022/05/03 23:17:13;;;;;;;11.38;2.15;;;;;;;;;;5066044;28;20595;-57
2022/05/03 23:19:39;;;;;;;10.13;2.03;;;;;;;;;;5051324;28;20037;-57
2022/05/03 23:22:05;;;;;;;12.32;1.75;;;;;;;;;;5048217;28;20049;-57
2022/05/03 23:24:32;;;;;;;6.03;1.95;;;;;;;;;;5048806;28;20033;-57
2022/05/03 23:26:58;;;;;;;11.02;2.13;;;;;;;;;;5066494;28;20086;-57
2022/05/03 23:29:24;;;;;;;9.18;2.00;;;;;;;;;;5066791;28;20480;-59
2022/05/03 23:31:51;;;;;;;7.80;2.25;;;;;;;;;;5060914;28;20041;-56
2022/05/03 23:37:03;;;;;;;7.97;1.88;;;;;;;;;;5047391;28;20060;-57
2022/05/03 23:39:29;;;;;;;10.07;2.30;;;;;;;;;;5060263;28;20482;-57
2022/05/03 23:41:55;;;;;;;8.30;1.98;;;;;;;;;;5066581;28;20489;-57
2022/05/03 23:44:21;;;;;;;7.35;2.22;;;;;;;;;;5065726;28;20559;-56
2022/05/03 23:46:48;;;;;;;10.85;1.73;;;;;;;;;;5048086;28;20116;-56
2022/05/03 23:49:14;;;;;;;7.80;2.08;;;;;;;;;;5047010;28;20053;-57
2022/05/03 23:51:40;;;;;;;8.07;1.90;;;;;;;;;;5050970;28;20044;-57
2022/05/03 23:54:07;;;;;;;12.95;2.40;;;;;;;;;;5047751;28;20124;-56
2022/05/03 23:56:33;;;;;;;12.93;2.55;;;;;;;;;;5046435;28;20045;-58
2022/05/03 23:58:59;;;;;;;16.55;2.17;;;;;;;;;;5055945;28;20049;-57
